Time;durP1;ratioP1;P1;durP2;ratioP2;P2;SDS_P1;SDS_P2;PMS_P1;PMS_P2;Temp;Humidity;BMP_temperature;BMP_pressure;BME280_temperature;BME280_humidity;BME280_pressure;Samples;Min_cycle;Max_cycle;Signal;HPM_P1;HPM_P2
2023/06/07 00:00:09;;;;;;;1.10;1.10;;;18.20;99.90;;;;;;5030107;28;20735;-64
2023/06/07 00:02:36;;;;;;;1.00;1.00;;;18.20;99.90;;;;;;5025688;28;20204;-64
2023/06/07 00:05:03;;;;;;;0.88;0.88;;;18.20;99.90;;;;;;5024306;28;20678;-64
2023/06/07 00:07:32;;;;;;;0.90;0.90;;;18.10;99.90;;;;;;5025272;28;20190;-64
2023/06/07 00:09:59;;;;;;;0.90;0.90;;;18.00;99.90;;;;;;5022028;28;20198;-64
2023/06/07 00:12:26;;;;;;;1.00;1.00;;;17.90;99.90;;;;;;5022531;28;20197;-65
2023/06/07 00:14:54;;;;;;;0.93;0.93;;;17.90;99.90;;;;;;5023485;28;20219;-63
2023/06/07 00:17:20;;;;;;;1.00;1.00;;;17.80;99.90;;;;;;5023052;28;20728;-64
2023/06/07 00:19:47;;;;;;;0.80;0.80;;;17.90;99.90;;;;;;5024451;28;20205;-64
2023/06/07 00:22:14;;;;;;;1.02;1.02;;;17.90;99.90;;;;;;5029787;28;20207;-65
2023/06/07 00:24:42;;;;;;;1.10;1.00;;;17.80;99.90;;;;;;5024493;28;20208;-64
2023/06/07 00:27:09;;;;;;;0.90;0.90;;;17.80;99.90;;;;;;5024208;28;20261;-64
2023/06/07 00:29:36;;;;;;;0.98;0.98;;;17.70;99.90;;;;;;5023944;28;20289;-64
2023/06/07 00:32:03;;;;;;;0.95;0.95;;;17.70;99.90;;;;;;5025180;28;20197;-64
2023/06/07 00:34:30;;;;;;;0.90;0.90;;;17.70;99.90;;;;;;5031558;28;20208;-64
2023/06/07 00:36:57;;;;;;;0.93;0.93;;;17.70;99.90;;;;;;5027670;28;20201;-64
2023/06/07 00:39:24;;;;;;;1.00;1.00;;;17.80;99.90;;;;;;5032019;28;20312;-64
2023/06/07 00:41:53;;;;;;;0.98;0.98;;;17.70;99.90;;;;;;5035474;28;20216;-65
2023/06/07 00:44:20;;;;;;;0.80;0.80;;;17.70;99.90;;;;;;5042380;28;20211;-65
2023/06/07 00:46:46;;;;;;;0.80;0.80;;;17.60;99.90;;;;;;5040009;28;20292;-65
2023/06/07 00:49:16;;;;;;;1.02;1.02;;;17.70;99.90;;;;;;5034574;28;20230;-64
2023/06/07 00:51:43;;;;;;;0.80;0.80;;;17.70;99.90;;;;;;5035042;28;20627;-65
2023/06/07 00:54:10;;;;;;;1.10;1.10;;;17.60;99.90;;;;;;5033914;28;20213;-64
2023/06/07 00:56:37;;;;;;;0.90;0.90;;;17.50;99.90;;;;;;5033824;28;20242;-64
2023/06/07 00:59:05;;;;;;;0.90;0.90;;;17.60;99.90;;;;;;5037487;28;20593;-64
2023/06/07 01:01:33;;;;;;;1.20;0.93;;;17.50;99.90;;;;;;5034387;28;20291;-64
2023/06/07 01:04:00;;;;;;;1.00;1.00;;;17.50;99.90;;;;;;5040013;28;20209;-64
2023/06/07 01:06:29;;;;;;;0.90;0.90;;;17.40;99.90;;;;;;5040594;28;20201;-64
2023/06/07 01:08:56;;;;;;;0.90;0.90;;;17.40;99.90;;;;;;5037736;28;20224;-64
2023/06/07 01:11:25;;;;;;;0.80;0.80;;;17.30;99.90;;;;;;5037325;28;20205;-64
2023/06/07 01:13:52;;;;;;;0.80;0.80;;;17.40;99.90;;;;;;5037456;28;20216;-64
2023/06/07 01:16:20;;;;;;;0.80;0.80;;;17.40;99.90;;;;;;5037409;28;20214;-64
2023/06/07 01:18:47;;;;;;;0.90;0.90;;;17.40;99.90;;;;;;5037190;28;20229;-64
2023/06/07 01:21:18;;;;;;;0.80;0.80;;;17.40;99.90;;;;;;5035771;28;20209;-65
2023/06/07 01:23:47;;;;;;;0.85;0.85;;;17.40;99.90;;;;;;5037719;28;20192;-64
2023/06/07 01:26:14;;;;;;;1.00;1.00;;;17.50;99.90;;;;;;5039044;28;20209;-65
2023/06/07 01:28:44;;;;;;;0.90;0.90;;;17.50;99.90;;;;;;5038568;28;20223;-65
2023/06/07 01:31:13;;;;;;;0.80;0.80;;;17.50;99.90;;;;;;5038425;28;20212;-64
2023/06/07 01:33:42;;;;;;;0.88;0.88;;;17.50;99.90;;;;;;5036913;28;20208;-65
2023/06/07 01:36:11;;;;;;;0.90;0.90;;;17.50;99.90;;;;;;5036851;28;20247;-64
2023/06/07 01:38:40;;;;;;;0.90;0.90;;;17.40;99.90;;;;;;5036717;28;20315;-64
2023/06/07 01:41:10;;;;;;;0.88;0.88;;;17.40;99.90;;;;;;5036791;28;20208;-63
2023/06/07 01:43:37;;;;;;;1.00;1.00;;;17.30;99.90;;;;;;5036207;28;20906;-65
2023/06/07 01:46:06;;;;;;;1.20;1.20;;;17.20;99.90;;;;;;5035510;28;20291;-64
2023/06/07 01:48:32;;;;;;;0.98;0.98;;;17.20;99.90;;;;;;5035284;28;20229;-63
2023/06/07 01:50:59;;;;;;;1.00;1.00;;;17.00;99.90;;;;;;5036190;28;20226;-64
2023/06/07 01:53:26;;;;;;;0.80;0.80;;;16.90;99.90;;;;;;5036101;28;20298;-64
2023/06/07 01:56:08;;;;;;;0.98;0.98;;;16.80;99.90;;;;;;5035530;28;20259;-63
2023/06/07 01:58:48;;;;;;;0.90;0.90;;;16.80;99.90;;;;;;5039384;28;20228;-64
2023/06/07 02:01:25;;;;;;;1.00;1.00;;;16.70;99.90;;;;;;5045224;28;20239;-63
2023/06/07 02:03:54;;;;;;;1.00;1.00;;;16.70;99.90;;;;;;5055233;28;20635;-63
2023/06/07 02:06:28;;;;;;;1.00;1.00;;;16.60;99.90;;;;;;5055371;28;20211;-64
2023/06/07 02:08:58;;;;;;;0.90;0.90;;;16.70;99.90;;;;;;5055280;28;20224;-64
2023/06/07 02:11:27;;;;;;;0.80;0.80;;;16.50;99.90;;;;;;5044648;28;20219;-65
2023/06/07 02:13:56;;;;;;;0.90;0.90;;;16.50;99.90;;;;;;5033583;28;20209;-64
2023/06/07 02:16:35;;;;;;;1.02;1.02;;;16.50;99.90;;;;;;5034693;28;20577;-65
2023/06/07 02:19:06;;;;;;;0.90;0.90;;;16.40;99.90;;;;;;5043117;23;20229;-66
2023/06/07 02:21:33;;;;;;;1.10;1.10;;;16.40;99.90;;;;;;5013857;28;20679;-65
2023/06/07 02:24:00;;;;;;;1.13;1.10;;;16.40;99.90;;;;;;5013519;28;20300;-65
2023/06/07 02:26:27;;;;;;;0.82;0.82;;;16.30;99.90;;;;;;5018332;28;20215;-66
2023/06/07 02:28:55;;;;;;;0.90;0.90;;;16.30;99.90;;;;;;5015025;28;20229;-65
2023/06/07 02:31:22;;;;;;;1.00;1.00;;;16.20;99.90;;;;;;5005455;28;20721;-64
2023/06/07 02:33:49;;;;;;;0.90;0.90;;;16.10;99.90;;;;;;5013671;28;20713;-63
2023/06/07 02:36:17;;;;;;;0.95;0.95;;;16.10;99.90;;;;;;5015577;28;20339;-65
2023/06/07 02:38:44;;;;;;;0.88;0.88;;;16.00;99.90;;;;;;5013578;28;20615;-64
2023/06/07 02:41:11;;;;;;;1.15;1.13;;;16.00;99.90;;;;;;5013122;28;20201;-64
2023/06/07 02:43:38;;;;;;;0.90;0.90;;;16.00;99.90;;;;;;5013379;28;20209;-64
2023/06/07 02:46:06;;;;;;;1.15;1.15;;;16.00;99.90;;;;;;5013166;28;20210;-64
2023/06/07 02:48:33;;;;;;;0.73;0.73;;;16.00;99.90;;;;;;5012983;28;20225;-65
2023/06/07 02:51:00;;;;;;;0.90;0.90;;;15.90;99.90;;;;;;5012702;28;20291;-64
2023/06/07 02:53:27;;;;;;;1.10;1.10;;;15.90;99.90;;;;;;5013655;28;20595;-64
2023/06/07 02:55:54;;;;;;;0.90;0.90;;;15.90;99.90;;;;;;5013290;28;20643;-66
2023/06/07 02:58:21;;;;;;;0.90;0.90;;;15.90;99.90;;;;;;5014649;28;20221;-64
2023/06/07 03:00:49;;;;;;;1.10;1.00;;;15.90;99.90;;;;;;5014365;28;20667;-63
2023/06/07 03:03:17;;;;;;;1.75;1.00;;;15.70;99.90;;;;;;5014191;28;20291;-64
2023/06/07 03:05:46;;;;;;;0.90;0.90;;;15.70;99.90;;;;;;5013077;28;20231;-66
2023/06/07 03:08:13;;;;;;;1.02;1.02;;;15.70;99.90;;;;;;5013130;28;20197;-64
2023/06/07 03:10:40;;;;;;;0.95;0.95;;;15.60;99.90;;;;;;5012289;28;20593;-64
2023/06/07 03:13:07;;;;;;;1.00;1.00;;;15.60;99.90;;;;;;5012473;28;20632;-65
2023/06/07 03:15:35;;;;;;;1.10;1.10;;;15.50;99.90;;;;;;5012606;28;20205;-65
2023/06/07 03:18:03;;;;;;;1.10;1.10;;;15.40;99.90;;;;;;5012448;28;20221;-65
2023/06/07 03:20:34;;;;;;;1.13;1.10;;;15.40;99.90;;;;;;5012223;28;20224;-65
2023/06/07 03:23:01;;;;;;;1.00;1.00;;;15.40;99.90;;;;;;5012775;28;20209;-65
2023/06/07 03:25:28;;;;;;;0.98;0.98;;;15.40;99.90;;;;;;5012161;28;20240;-64
2023/06/07 03:27:55;;;;;;;1.20;1.08;;;15.40;99.90;;;;;;5012462;28;20221;-64
2023/06/07 03:30:22;;;;;;;1.27;1.20;;;15.30;99.90;;;;;;5011944;28;20257;-64
2023/06/07 03:32:48;;;;;;;0.90;0.90;;;15.30;99.90;;;;;;5012224;28;20579;-64
2023/06/07 03:35:15;;;;;;;1.13;1.13;;;15.30;99.90;;;;;;5012390;28;20212;-66
2023/06/07 03:37:43;;;;;;;1.00;1.00;;;15.30;99.90;;;;;;5012523;28;20220;-65
2023/06/07 03:40:11;;;;;;;1.02;1.02;;;15.20;99.90;;;;;;5014634;28;20315;-63
2023/06/07 03:42:38;;;;;;;1.10;1.10;;;15.20;99.90;;;;;;5023857;28;20212;-64
2023/06/07 03:45:06;;;;;;;1.13;1.13;;;15.10;99.90;;;;;;5013218;28;20205;-64
2023/06/07 03:47:33;;;;;;;1.38;1.10;;;15.10;99.90;;;;;;5012586;28;20263;-63
2023/06/07 03:50:00;;;;;;;1.33;1.20;;;15.10;99.90;;;;;;5011993;28;20235;-64
2023/06/07 03:52:27;;;;;;;1.05;1.05;;;15.00;99.90;;;;;;5012224;28;20216;-65
2023/06/07 03:54:55;;;;;;;0.90;0.90;;;15.00;99.90;;;;;;5012073;28;20295;-65
2023/06/07 03:57:22;;;;;;;2.05;1.25;;;15.00;99.90;;;;;;5012091;28;20300;-63
2023/06/07 03:59:48;;;;;;;0.90;0.90;;;15.00;99.90;;;;;;5011398;28;20244;-65
2023/06/07 04:02:15;;;;;;;1.05;1.05;;;15.00;99.90;;;;;;5011842;28;20762;-65
2023/06/07 04:04:42;;;;;;;1.00;1.00;;;15.00;99.90;;;;;;5011644;28;20244;-64
2023/06/07 04:07:09;;;;;;;1.00;1.00;;;15.00;99.90;;;;;;5011603;28;20288;-64
2023/06/07 04:09:36;;;;;;;1.27;1.17;;;15.10;99.90;;;;;;5011675;28;20227;-64
2023/06/07 04:12:05;;;;;;;1.13;1.13;;;15.00;99.90;;;;;;5011752;28;20213;-66
2023/06/07 04:14:32;;;;;;;1.08;1.08;;;15.00;99.90;;;;;;5012264;28;20229;-64
2023/06/07 04:16:58;;;;;;;1.20;1.17;;;15.10;99.90;;;;;;5012794;28;20600;-64
2023/06/07 04:19:25;;;;;;;1.40;1.30;;;15.10;99.90;;;;;;5012005;28;20245;-64
2023/06/07 04:21:52;;;;;;;1.42;1.10;;;15.20;99.90;;;;;;5011543;28;20217;-65
2023/06/07 04:24:19;;;;;;;1.02;1.02;;;15.30;99.90;;;;;;5011950;28;20209;-64
2023/06/07 04:26:47;;;;;;;1.20;1.10;;;15.30;99.90;;;;;;5010041;28;20201;-65
2023/06/07 04:29:15;;;;;;;1.10;1.10;;;15.30;99.90;;;;;;5011499;28;20237;-65
2023/06/07 04:31:43;;;;;;;1.10;1.10;;;15.30;99.90;;;;;;5018606;28;20201;-65
2023/06/07 04:34:10;;;;;;;1.13;1.10;;;15.40;99.90;;;;;;5011442;28;20193;-66
2023/06/07 04:36:39;;;;;;;1.08;1.00;;;15.40;99.90;;;;;;5012691;28;20227;-64
2023/06/07 04:39:09;;;;;;;0.90;0.90;;;15.50;99.90;;;;;;5015859;28;20236;-65
2023/06/07 04:41:36;;;;;;;2.45;1.50;;;15.50;99.90;;;;;;5015966;28;20236;-64
2023/06/07 04:44:04;;;;;;;1.10;1.10;;;15.60;99.90;;;;;;5017222;28;20203;-64
2023/06/07 04:46:32;;;;;;;1.00;1.00;;;15.60;99.90;;;;;;5016138;28;20211;-64
2023/06/07 04:49:00;;;;;;;1.00;1.00;;;15.60;99.90;;;;;;5015846;28;20229;-64
2023/06/07 04:51:29;;;;;;;1.00;1.00;;;15.70;99.90;;;;;;5015289;28;20233;-65
2023/06/07 04:53:58;;;;;;;1.00;1.00;;;15.70;99.90;;;;;;5016207;28;20229;-63
2023/06/07 04:56:25;;;;;;;1.10;1.10;;;15.70;99.90;;;;;;5016375;28;20224;-64
2023/06/07 04:58:53;;;;;;;1.00;1.00;;;15.80;99.90;;;;;;5020452;28;20235;-65
2023/06/07 05:01:20;;;;;;;1.20;1.10;;;15.80;99.90;;;;;;5016670;28;20267;-65
2023/06/07 05:03:50;;;;;;;1.02;1.02;;;15.90;99.90;;;;;;5015901;28;20269;-64
2023/06/07 05:06:18;;;;;;;2.15;1.10;;;16.00;99.90;;;;;;5014048;28;20724;-66
2023/06/07 05:08:46;;;;;;;0.93;0.93;;;16.10;99.90;;;;;;5010158;28;20239;-66
2023/06/07 05:11:12;;;;;;;1.17;1.08;;;16.30;99.90;;;;;;5012023;28;20216;-64
2023/06/07 05:13:39;;;;;;;1.10;1.10;;;16.40;99.90;;;;;;5020841;28;20209;-64
2023/06/07 05:16:15;;;;;;;1.20;1.10;;;16.40;99.90;;;;;;5024969;28;20552;-64
2023/06/07 05:18:46;;;;;;;1.10;1.10;;;16.60;99.90;;;;;;5025597;28;20235;-64
2023/06/07 05:21:15;;;;;;;1.20;1.10;;;16.80;99.90;;;;;;5017804;28;20304;-63
2023/06/07 05:23:42;;;;;;;1.10;1.10;;;17.00;99.90;;;;;;5019713;28;20205;-65
2023/06/07 05:26:09;;;;;;;6.13;2.17;;;17.20;99.90;;;;;;5020918;28;20280;-64
2023/06/07 05:28:36;;;;;;;4.57;1.92;;;17.40;99.90;;;;;;5035219;28;20225;-67
2023/06/07 05:31:03;;;;;;;1.52;1.42;;;17.60;99.90;;;;;;5032164;28;20209;-66
2023/06/07 05:33:30;;;;;;;2.33;1.52;;;17.80;99.90;;;;;;5013851;28;20205;-64
2023/06/07 05:35:57;;;;;;;3.80;1.63;;;18.00;99.90;;;;;;5013977;28;20201;-65
2023/06/07 05:38:26;;;;;;;2.15;1.65;;;18.20;99.90;;;;;;5014662;28;20228;-64
2023/06/07 05:40:54;;;;;;;1.60;1.27;;;18.30;99.90;;;;;;5015756;28;20220;-66
2023/06/07 05:43:21;;;;;;;1.55;1.20;;;18.50;99.90;;;;;;5014277;28;20212;-64
2023/06/07 05:45:47;;;;;;;1.65;1.20;;;18.60;99.90;;;;;;5014545;28;20209;-63
2023/06/07 05:48:14;;;;;;;1.20;1.20;;;18.90;99.90;;;;;;5015700;28;20372;-65
2023/06/07 05:50:41;;;;;;;1.00;1.00;;;18.90;99.90;;;;;;5015704;28;20298;-65
2023/06/07 05:53:08;;;;;;;1.02;1.02;;;18.70;99.90;;;;;;5015680;28;20580;-64
2023/06/07 05:55:37;;;;;;;1.30;1.20;;;18.60;99.90;;;;;;5011633;28;20209;-64
2023/06/07 05:58:03;;;;;;;1.05;1.00;;;18.60;99.90;;;;;;5002172;28;20221;-64
2023/06/07 06:00:31;;;;;;;1.40;1.30;;;18.90;99.90;;;;;;5013513;28;20236;-65
2023/06/07 06:03:00;;;;;;;1.40;1.40;;;19.00;99.90;;;;;;5014696;28;20293;-65
2023/06/07 06:05:28;;;;;;;1.45;1.35;;;19.00;99.90;;;;;;5014147;28;20214;-66
2023/06/07 06:07:55;;;;;;;1.20;1.20;;;19.10;99.90;;;;;;5014263;28;20213;-66
2023/06/07 06:10:22;;;;;;;1.13;1.13;;;19.00;99.90;;;;;;5013850;28;20287;-65
2023/06/07 06:12:50;;;;;;;2.55;1.38;;;19.10;99.90;;;;;;5014320;28;20249;-64
2023/06/07 06:15:17;;;;;;;1.20;1.20;;;19.20;99.90;;;;;;5014084;28;20316;-65
2023/06/07 06:17:44;;;;;;;1.50;1.40;;;19.30;99.90;;;;;;5015201;28;20263;-64
2023/06/07 06:20:12;;;;;;;1.38;1.20;;;19.20;99.90;;;;;;5013647;28;20311;-67
2023/06/07 06:22:39;;;;;;;1.40;1.30;;;19.30;99.90;;;;;;5022057;28;20676;-66
2023/06/07 06:25:07;;;;;;;1.20;1.20;;;19.30;99.90;;;;;;5015292;28;20676;-64
2023/06/07 06:27:34;;;;;;;1.60;1.50;;;19.30;99.90;;;;;;5013607;28;20220;-65
2023/06/07 06:30:02;;;;;;;1.50;1.40;;;19.50;99.90;;;;;;5013419;28;20232;-67
2023/06/07 06:32:28;;;;;;;1.38;1.30;;;19.60;99.90;;;;;;5013730;28;20213;-65
2023/06/07 06:34:55;;;;;;;1.23;1.20;;;19.60;99.90;;;;;;5014141;28;20205;-65
2023/06/07 06:37:23;;;;;;;1.20;1.20;;;19.70;99.90;;;;;;5013880;28;20667;-64
2023/06/07 06:39:51;;;;;;;1.30;1.30;;;19.70;99.90;;;;;;5013275;28;20251;-65
2023/06/07 06:42:18;;;;;;;1.30;1.30;;;19.70;99.90;;;;;;5013556;28;20209;-66
2023/06/07 06:44:45;;;;;;;1.40;1.30;;;19.80;99.90;;;;;;5014041;28;20215;-66
2023/06/07 06:47:13;;;;;;;1.30;1.27;;;19.90;99.90;;;;;;5013657;28;20570;-66
2023/06/07 06:49:40;;;;;;;1.52;1.42;;;20.00;99.90;;;;;;5014335;28;20308;-66
2023/06/07 06:52:08;;;;;;;1.58;1.48;;;20.10;99.90;;;;;;5021748;28;20292;-65
2023/06/07 06:54:35;;;;;;;1.33;1.30;;;20.20;99.90;;;;;;5013920;28;20213;-65
2023/06/07 06:57:01;;;;;;;1.38;1.30;;;20.30;99.90;;;;;;5014132;28;20278;-65
2023/06/07 06:59:28;;;;;;;1.70;1.60;;;20.20;99.90;;;;;;5013909;28;20668;-66
2023/06/07 07:01:56;;;;;;;1.90;1.60;;;20.30;99.90;;;;;;5014889;28;20210;-66
2023/06/07 07:04:25;;;;;;;1.60;1.50;;;20.40;99.90;;;;;;5014380;28;20304;-66
2023/06/07 07:06:51;;;;;;;1.80;1.70;;;20.30;99.90;;;;;;5019238;28;20216;-65
2023/06/07 07:09:18;;;;;;;1.55;1.52;;;20.40;99.90;;;;;;5013087;28;20226;-66
2023/06/07 07:11:45;;;;;;;1.85;1.70;;;20.50;99.90;;;;;;5012992;28;20213;-67
2023/06/07 07:14:12;;;;;;;2.17;1.60;;;20.60;99.90;;;;;;5018311;28;20209;-66
2023/06/07 07:16:39;;;;;;;1.70;1.60;;;20.50;99.90;;;;;;5014076;28;20201;-64
2023/06/07 07:19:06;;;;;;;1.98;1.65;;;20.60;99.90;;;;;;5014000;28;20229;-67
2023/06/07 07:21:35;;;;;;;1.60;1.50;;;20.70;99.90;;;;;;5013861;28;20213;-65
2023/06/07 07:24:02;;;;;;;1.95;1.55;;;20.90;99.90;;;;;;5013249;28;20244;-66
2023/06/07 07:26:29;;;;;;;1.20;1.20;;;20.90;99.90;;;;;;5012855;28;20206;-65
2023/06/07 07:28:55;;;;;;;1.50;1.40;;;20.90;99.90;;;;;;5012644;28;20239;-66
2023/06/07 07:31:22;;;;;;;1.50;1.40;;;21.00;99.90;;;;;;5012817;28;20205;-65
2023/06/07 07:33:49;;;;;;;1.50;1.40;;;21.10;99.90;;;;;;5012903;28;20296;-64
2023/06/07 07:36:17;;;;;;;1.70;1.60;;;21.10;99.90;;;;;;5012345;28;20217;-65
2023/06/07 07:38:46;;;;;;;1.58;1.48;;;21.10;99.90;;;;;;5012178;28;20229;-65
2023/06/07 07:41:14;;;;;;;1.50;1.40;;;21.30;99.90;;;;;;5012130;28;20300;-65
2023/06/07 07:43:41;;;;;;;1.45;1.35;;;21.40;99.90;;;;;;5012568;28;20213;-65
2023/06/07 07:46:08;;;;;;;1.40;1.40;;;21.50;99.90;;;;;;5012315;28;20216;-65
2023/06/07 07:48:35;;;;;;;1.40;1.30;;;21.60;99.90;;;;;;5012749;28;20526;-65
2023/06/07 07:51:02;;;;;;;1.50;1.40;;;21.60;99.90;;;;;;5012050;28;20205;-67
2023/06/07 07:53:29;;;;;;;1.50;1.40;;;21.60;99.90;;;;;;5012503;28;20622;-65
2023/06/07 07:55:57;;;;;;;1.25;1.25;;;21.60;99.90;;;;;;5013009;28;20212;-65
2023/06/07 07:58:25;;;;;;;1.30;1.20;;;21.30;99.90;;;;;;5012322;28;20209;-64
2023/06/07 08:00:52;;;;;;;1.27;1.27;;;21.50;99.90;;;;;;5011815;28;20232;-66
2023/06/07 08:03:19;;;;;;;1.50;1.40;;;21.70;99.90;;;;;;5012207;28;20352;-66
2023/06/07 08:05:46;;;;;;;1.50;1.40;;;21.80;99.90;;;;;;5012780;28;20205;-67
2023/06/07 08:08:13;;;;;;;1.23;1.20;;;21.80;99.90;;;;;;5012412;28;20211;-66
2023/06/07 08:10:40;;;;;;;1.60;1.50;;;22.00;99.90;;;;;;5017130;28;20292;-66
2023/06/07 08:13:08;;;;;;;1.60;1.50;;;22.10;99.90;;;;;;5020366;28;20281;-66
2023/06/07 08:15:35;;;;;;;1.30;1.30;;;22.10;99.90;;;;;;5020513;28;20209;-66
2023/06/07 08:18:02;;;;;;;1.40;1.30;;;22.20;99.90;;;;;;5018715;28;20328;-66
2023/06/07 08:20:28;;;;;;;1.30;1.20;;;22.40;99.90;;;;;;5054885;22;20675;-65
2023/06/07 08:22:55;;;;;;;1.30;1.27;;;22.50;99.90;;;;;;5036461;28;20207;-63
2023/06/07 08:25:22;;;;;;;1.00;1.00;;;22.60;99.90;;;;;;5032272;28;20303;-64
2023/06/07 08:27:49;;;;;;;1.10;1.10;;;22.80;99.90;;;;;;5032006;28;20644;-65
2023/06/07 08:30:18;;;;;;;1.20;1.20;;;23.00;99.90;;;;;;5031374;28;20730;-64
2023/06/07 08:32:45;;;;;;;1.20;1.20;;;23.20;99.90;;;;;;5031379;28;20219;-64
2023/06/07 08:35:12;;;;;;;1.10;1.10;;;23.30;99.90;;;;;;5032211;28;20213;-65
2023/06/07 08:37:40;;;;;;;1.25;1.20;;;23.30;99.90;;;;;;5031398;28;20227;-64
2023/06/07 08:40:08;;;;;;;1.40;1.30;;;23.10;99.90;;;;;;5031249;28;20240;-65
2023/06/07 08:42:35;;;;;;;1.63;1.52;;;23.30;99.90;;;;;;5031188;28;20201;-65
2023/06/07 08:45:02;;;;;;;1.20;1.15;;;23.50;99.90;;;;;;5031448;28;20207;-65
2023/06/07 08:47:32;;;;;;;1.50;1.40;;;23.60;99.90;;;;;;5031687;28;20205;-64
2023/06/07 08:49:59;;;;;;;1.00;1.00;;;23.70;99.90;;;;;;5031389;28;20228;-65
2023/06/07 08:52:26;;;;;;;1.75;1.35;;;23.80;99.90;;;;;;5031444;28;20219;-65
2023/06/07 08:54:58;;;;;;;1.30;1.20;;;23.90;99.90;;;;;;5035192;28;20201;-65
2023/06/07 08:57:25;;;;;;;1.55;1.20;;;23.90;99.90;;;;;;5034303;28;20212;-65
2023/06/07 08:59:52;;;;;;;1.40;1.30;;;23.90;99.90;;;;;;5031738;28;20274;-65
2023/06/07 09:02:21;;;;;;;1.15;1.15;;;23.90;99.90;;;;;;5032042;28;20209;-64
2023/06/07 09:04:49;;;;;;;1.52;1.52;;;24.10;99.90;;;;;;5038023;28;20208;-64
2023/06/07 09:07:16;;;;;;;1.48;1.10;;;24.20;99.90;;;;;;5036501;28;20295;-64
2023/06/07 09:09:44;;;;;;;1.20;1.20;;;24.00;99.90;;;;;;5041117;28;20234;-63
2023/06/07 09:12:11;;;;;;;1.10;1.05;;;24.00;99.90;;;;;;5039797;28;20213;-64
2023/06/07 09:14:38;;;;;;;1.30;1.30;;;24.10;99.90;;;;;;5031503;28;20259;-64
2023/06/07 09:17:05;;;;;;;1.20;1.20;;;24.30;99.90;;;;;;5031438;28;20299;-64
2023/06/07 09:19:34;;;;;;;1.00;1.00;;;24.40;99.90;;;;;;5031367;28;20741;-64
2023/06/07 09:22:02;;;;;;;1.00;1.00;;;24.40;99.90;;;;;;5031604;28;20462;-65
2023/06/07 09:24:31;;;;;;;1.75;1.17;;;24.60;99.90;;;;;;5034939;28;20204;-64
2023/06/07 09:26:59;;;;;;;1.30;1.20;;;24.80;99.90;;;;;;5034955;28;20565;-64
2023/06/07 09:29:27;;;;;;;1.35;1.20;;;24.80;99.90;;;;;;5035242;28;20211;-64
2023/06/07 09:31:55;;;;;;;1.00;1.00;;;24.80;99.90;;;;;;5035525;28;20205;-64
2023/06/07 09:34:24;;;;;;;1.00;1.00;;;24.70;99.90;;;;;;5035578;28;20247;-65
2023/06/07 09:36:52;;;;;;;1.10;1.10;;;24.90;99.90;;;;;;5035292;28;20255;-64
2023/06/07 09:39:25;;;;;;;1.00;1.00;;;25.10;99.90;;;;;;5034780;28;20204;-64
2023/06/07 09:41:54;;;;;;;0.95;0.95;;;25.10;99.90;;;;;;5035008;28;20278;-64
2023/06/07 09:44:26;;;;;;;1.00;1.00;;;25.10;99.90;;;;;;5036401;28;20215;-64
2023/06/07 09:46:53;;;;;;;0.90;0.90;;;25.20;99.90;;;;;;5035201;28;20717;-64
2023/06/07 09:49:31;;;;;;;1.08;1.08;;;25.20;99.90;;;;;;5034906;28;20227;-64
2023/06/07 09:51:58;;;;;;;0.90;0.90;;;25.30;99.90;;;;;;5035427;28;20200;-64
2023/06/07 09:54:47;;;;;;;0.90;0.90;;;25.40;99.90;;;;;;5035218;28;20215;-66
2023/06/07 09:57:30;;;;;;;1.45;1.40;;;25.70;99.90;;;;;;5028866;28;20251;-63
2023/06/07 09:59:58;;;;;;;1.00;1.00;;;25.70;99.90;;;;;;5034959;28;20279;-65
2023/06/07 10:02:26;;;;;;;1.10;1.10;;;25.70;99.90;;;;;;5035242;28;20209;-64
2023/06/07 10:04:55;;;;;;;1.63;0.85;;;25.80;99.90;;;;;;5035569;28;20204;-63
2023/06/07 10:07:24;;;;;;;1.10;1.10;;;26.00;99.90;;;;;;5035337;28;20205;-66
2023/06/07 10:09:54;;;;;;;1.00;1.00;;;25.80;99.90;;;;;;5035831;28;20758;-64
2023/06/07 10:12:23;;;;;;;1.02;1.02;;;25.80;99.90;;;;;;5038783;28;20617;-64
2023/06/07 10:14:52;;;;;;;1.00;1.00;;;25.80;99.90;;;;;;5036876;28;20221;-62
2023/06/07 10:17:23;;;;;;;1.30;1.20;;;25.80;99.90;;;;;;5036211;28;20682;-63
2023/06/07 10:19:52;;;;;;;1.08;1.08;;;26.00;99.90;;;;;;5043881;28;20311;-64
2023/06/07 10:22:23;;;;;;;1.15;1.13;;;25.80;99.90;;;;;;5046696;28;20193;-64
2023/06/07 10:24:59;;;;;;;1.10;1.00;;;25.80;99.90;;;;;;5041950;28;20204;-64
2023/06/07 10:27:29;;;;;;;0.80;0.80;;;25.80;99.90;;;;;;5043273;28;20240;-66
2023/06/07 10:30:03;;;;;;;1.48;1.38;;;26.00;99.90;;;;;;5035128;28;20279;-63
2023/06/07 10:32:33;;;;;;;1.40;1.30;;;26.10;99.90;;;;;;5035317;28;20578;-65
2023/06/07 10:35:01;;;;;;;2.35;1.10;;;26.30;99.90;;;;;;5033810;28;20209;-64
2023/06/07 10:37:30;;;;;;;1.02;1.02;;;26.40;99.90;;;;;;5034328;28;20234;-64
2023/06/07 10:39:59;;;;;;;1.20;1.10;;;26.60;99.90;;;;;;5033797;28;20260;-64
2023/06/07 10:42:27;;;;;;;1.98;1.20;;;26.70;99.90;;;;;;5034254;28;20215;-64
2023/06/07 10:44:55;;;;;;;3.03;2.92;;;26.70;99.90;;;;;;5034008;28;20208;-64
2023/06/07 10:47:29;;;;;;;2.95;2.75;;;26.60;99.90;;;;;;5034109;28;20213;-64
2023/06/07 10:49:56;;;;;;;0.98;0.98;;;26.40;99.90;;;;;;5034225;28;20310;-65
2023/06/07 10:52:24;;;;;;;0.95;0.95;;;26.50;99.90;;;;;;5034195;28;20214;-63
2023/06/07 10:54:51;;;;;;;2.30;1.20;;;26.70;99.90;;;;;;5034167;28;20211;-64
2023/06/07 10:57:35;;;;;;;2.35;2.25;;;26.70;99.90;;;;;;5041329;28;20208;-65
2023/06/07 11:00:30;;;;;;;1.20;1.10;;;26.50;99.90;;;;;;5047863;28;20235;-66
2023/06/07 11:03:35;;;;;;;1.00;1.00;;;26.50;99.90;;;;;;5046437;28;20205;-65
2023/06/07 11:06:09;;;;;;;1.10;1.10;;;26.60;99.90;;;;;;5037492;28;20208;-64
2023/06/07 11:08:37;;;;;;;1.10;1.10;;;26.60;99.90;;;;;;5034036;28;20208;-64
2023/06/07 11:11:06;;;;;;;1.13;1.13;;;26.40;99.90;;;;;;5033494;28;20217;-63
2023/06/07 11:14:11;;;;;;;1.35;1.05;;;26.70;99.90;;;;;;5034079;28;20228;-65
2023/06/07 11:16:38;;;;;;;1.20;1.10;;;26.80;99.90;;;;;;5033921;28;20208;-64
2023/06/07 11:19:11;;;;;;;1.33;1.10;;;26.70;99.90;;;;;;5033779;28;20208;-63
2023/06/07 11:22:05;;;;;;;1.10;1.10;;;26.60;99.90;;;;;;5033863;28;20316;-64
2023/06/07 11:24:34;;;;;;;1.35;1.25;;;26.70;99.90;;;;;;5033617;28;20591;-64
2023/06/07 11:27:00;;;;;;;1.50;1.50;;;26.70;99.90;;;;;;5033285;28;20667;-63
2023/06/07 11:29:30;;;;;;;1.42;1.33;;;26.80;99.90;;;;;;5032971;28;20590;-65
2023/06/07 11:31:59;;;;;;;3.72;1.20;;;26.80;99.90;;;;;;5034773;28;20201;-63
2023/06/07 11:34:29;;;;;;;1.10;1.10;;;26.80;99.90;;;;;;5033150;28;20212;-64
2023/06/07 11:37:09;;;;;;;2.65;1.42;;;26.90;99.90;;;;;;5033609;28;20215;-64
2023/06/07 11:39:36;;;;;;;0.90;0.90;;;27.20;99.90;;;;;;5033378;28;20335;-65
2023/06/07 11:42:03;;;;;;;0.90;0.90;;;27.20;99.90;;;;;;5034005;28;20228;-64
2023/06/07 11:44:34;;;;;;;1.00;1.00;;;27.20;99.90;;;;;;5034626;28;20305;-64
2023/06/07 11:47:05;;;;;;;1.20;1.10;;;27.40;99.90;;;;;;5033217;28;20212;-64
2023/06/07 11:49:32;;;;;;;0.90;0.90;;;27.50;99.90;;;;;;5033009;28;20221;-65
2023/06/07 11:51:59;;;;;;;1.25;1.10;;;27.60;99.90;;;;;;5033281;28;20205;-65
2023/06/07 11:54:26;;;;;;;1.40;1.30;;;27.70;99.90;;;;;;5032526;28;20584;-64
2023/06/07 11:56:54;;;;;;;0.90;0.90;;;27.70;99.90;;;;;;5032537;28;20657;-64
2023/06/07 11:59:22;;;;;;;1.63;1.52;;;27.50;99.90;;;;;;5032184;28;20674;-64
2023/06/07 12:01:54;;;;;;;1.00;1.00;;;27.40;99.90;;;;;;5032708;28;20224;-65
2023/06/07 12:04:22;;;;;;;0.90;0.90;;;27.10;99.90;;;;;;5033702;28;20255;-64
2023/06/07 12:06:49;;;;;;;0.98;0.98;;;27.10;99.90;;;;;;5033359;28;20671;-64
2023/06/07 12:09:18;;;;;;;0.98;0.98;;;27.20;99.90;;;;;;5031661;28;20209;-65
2023/06/07 12:11:46;;;;;;;1.67;1.58;;;27.20;99.90;;;;;;5032253;28;20258;-64
2023/06/07 12:14:28;;;;;;;0.90;0.90;;;27.10;99.90;;;;;;5032160;28;20213;-64
2023/06/07 12:16:59;;;;;;;1.10;1.10;;;27.00;99.90;;;;;;5033055;28;20208;-64
2023/06/07 12:19:26;;;;;;;0.90;0.90;;;26.90;99.90;;;;;;5032433;28;20762;-63
2023/06/07 12:21:56;;;;;;;0.90;0.90;;;27.10;99.90;;;;;;5032376;28;20235;-64
2023/06/07 12:24:23;;;;;;;0.95;0.95;;;27.40;99.90;;;;;;5032897;28;20307;-64
2023/06/07 12:26:50;;;;;;;0.80;0.80;;;27.50;99.90;;;;;;5032217;28;20216;-64
2023/06/07 12:29:16;;;;;;;1.02;1.00;;;27.70;99.90;;;;;;5034742;28;20218;-65
2023/06/07 12:31:44;;;;;;;1.65;1.08;;;27.70;99.90;;;;;;5043505;28;20201;-64
2023/06/07 12:34:15;;;;;;;1.17;1.10;;;27.70;99.90;;;;;;5029388;28;20196;-64
2023/06/07 12:36:42;;;;;;;1.15;1.00;;;27.70;99.90;;;;;;5031756;28;20216;-64
2023/06/07 12:39:11;;;;;;;1.80;1.10;;;27.80;99.90;;;;;;5030781;28;20313;-64
2023/06/07 12:41:39;;;;;;;1.13;1.13;;;27.90;99.90;;;;;;5030551;28;20291;-65
2023/06/07 12:44:07;;;;;;;1.40;1.30;;;27.70;99.90;;;;;;5030093;28;20208;-63
2023/06/07 12:46:34;;;;;;;1.02;0.90;;;27.70;99.90;;;;;;5032148;28;20208;-64
2023/06/07 12:49:02;;;;;;;1.00;1.00;;;27.50;99.90;;;;;;5033235;28;20205;-64
2023/06/07 12:51:33;;;;;;;0.98;0.95;;;27.70;99.90;;;;;;5039264;28;20224;-65
2023/06/07 12:54:00;;;;;;;0.82;0.82;;;27.90;99.90;;;;;;5032374;28;20200;-65